Terminal Aerodrome Forecast
Issued by NWS Green Bay, WI

Home | Current Version | Previous Version | Text Only | Print | Product List | Glossary On
Versions: 1 2 3 4 5 6 7 8 9 10 11 12 13 14 15 16 17 18 19 20 21 22
000
FTUS43 KGRB 281006 AAB
TAFGRB
TAF AMD
KGRB 281006Z 2810/2906 27004KT 3SM BR SCT003 BKN015
      TEMPO 2810/2813 1/2SM FG OVC003
     FM281300 29004KT P6SM SCT004 BKN020
     FM281600 24006KT P6SM SCT025
     FM290000 VRB03KT P6SM SKC=

USA.gov is the U.S. government's official web portal to all federal, state and local government web resources and services.